Lurin, Peru
Current Conditions -  °F | °C
As of 11:00 AM on Sunday 21 Dec 2014 (Local Time) from SPIM Reporting Station
Overcast Overcast  
Wind Chill: 72°   Ceiling: 3000
Heat Index: 72°   Visibility: 6mi
Dew Point: 63°   Wind: 7mph
Humidity: 73%   Direction: 220°SW
Pressure: 29.97"   Gusts: NA
Location:  12.32°S, 76.25°W
Report Text: SPIM 211600Z 22006KT 9999 OVC030 22/17 Q1015 NOSIG RMK BIRD HAZARD RWY 15 PP000
Loading
Personal Weather Stations






























Interactive Weather Map New forecast layout! Learn more

10-Day Weather Forecast

Advertisements
Track Severe Weather on mobile